createdAt,value
2023-03-15T00:01:50.654Z,100742.75
2023-03-15T00:04:17.494Z,100747.34
2023-03-15T00:06:44.441Z,100747.50
2023-03-15T00:09:11.737Z,100751.09
2023-03-15T00:11:38.698Z,100752.09
2023-03-15T00:14:06.482Z,100754.03
2023-03-15T00:16:33.535Z,100759.47
2023-03-15T00:19:00.829Z,100764.16
2023-03-15T00:21:30.106Z,100763.44
2023-03-15T00:23:57.803Z,100756.47
2023-03-15T00:26:24.634Z,100764.47
2023-03-15T00:28:51.664Z,100772.53
2023-03-15T00:31:21.330Z,100763.94
2023-03-15T00:33:49.319Z,100766.75
2023-03-15T00:36:16.887Z,100770.38
2023-03-15T00:38:46.674Z,100768.75
2023-03-15T00:41:15.698Z,100774.97
2023-03-15T00:43:43.235Z,100775.13
2023-03-15T00:46:10.342Z,100780.50
2023-03-15T00:48:37.784Z,100783.28
2023-03-15T00:51:07.618Z,100779.78
2023-03-15T00:53:36.394Z,100779.88
2023-03-15T00:56:07.846Z,100780.03
2023-03-15T00:58:34.724Z,100775.59
2023-03-15T01:01:09.068Z,100770.53
2023-03-15T01:03:37.044Z,100780.16
2023-03-15T01:06:16.465Z,100784.69
2023-03-15T01:08:43.731Z,100794.47
2023-03-15T01:11:19.693Z,100794.53
2023-03-15T01:13:47.205Z,100796.31
2023-03-15T01:16:15.013Z,100799.94
2023-03-15T01:18:42.431Z,100794.75
2023-03-15T01:21:11.612Z,100799.28
2023-03-15T01:23:38.824Z,100800.19
2023-03-15T01:26:08.212Z,100798.47
2023-03-15T01:28:35.204Z,100803.75
2023-03-15T01:31:02.155Z,100795.06
2023-03-15T01:33:29.369Z,100795.97
2023-03-15T01:36:01.534Z,100792.56
2023-03-15T01:38:28.779Z,100800.47
2023-03-15T01:40:55.696Z,100801.34
2023-03-15T01:43:24.936Z,100800.47
2023-03-15T01:46:20.022Z,100804.06
2023-03-15T01:48:51.772Z,100802.44
2023-03-15T01:51:28.274Z,100806.84
2023-03-15T01:54:08.229Z,100808.63
2023-03-15T01:56:38.640Z,100813.91
2023-03-15T01:59:09.685Z,100813.06
2023-03-15T02:01:37.685Z,100805.22
2023-03-15T02:04:09.498Z,100805.22
2023-03-15T02:06:37.308Z,100794.66
2023-03-15T02:09:09.631Z,100791.31
2023-03-15T02:11:37.197Z,100783.41
2023-03-15T02:14:06.465Z,100781.66
2023-03-15T02:16:34.086Z,100780.84
2023-03-15T02:19:01.232Z,100785.25
2023-03-15T02:21:30.865Z,100786.19
2023-03-15T02:24:45.858Z,100784.41
2023-03-15T02:27:12.982Z,100779.22
2023-03-15T02:29:39.970Z,100781.84
2023-03-15T02:32:07.218Z,100774.84
2023-03-15T02:34:34.120Z,100778.41
2023-03-15T02:37:00.941Z,100782.81
2023-03-15T02:39:27.832Z,100776.72
2023-03-15T02:41:58.112Z,100781.19
2023-03-15T02:44:37.517Z,100775.00
2023-03-15T02:47:22.693Z,100775.00
2023-03-15T02:49:54.085Z,100768.00
2023-03-15T02:52:22.475Z,100766.31
2023-03-15T02:54:49.913Z,100771.59
2023-03-15T02:57:19.293Z,100776.84
2023-03-15T02:59:46.426Z,100775.13
2023-03-15T03:02:13.789Z,100767.31
2023-03-15T03:04:41.896Z,100762.94
2023-03-15T03:07:09.015Z,100766.44
2023-03-15T03:09:35.871Z,100766.44
2023-03-15T03:12:02.695Z,100761.19
2023-03-15T03:14:29.535Z,100770.88
2023-03-15T03:16:56.420Z,100762.94
2023-03-15T03:19:26.093Z,100767.38
2023-03-15T03:21:54.338Z,100770.00
2023-03-15T03:24:21.850Z,100761.19
2023-03-15T03:26:48.715Z,100766.44
2023-03-15T03:29:16.993Z,100761.19
2023-03-15T03:31:45.180Z,100760.31
2023-03-15T03:34:15.814Z,100761.19
2023-03-15T03:36:43.732Z,100766.44
2023-03-15T03:39:11.220Z,100766.44
2023-03-15T03:41:38.252Z,100772.66
2023-03-15T03:44:05.289Z,100771.72
2023-03-15T03:46:32.337Z,100766.44
2023-03-15T03:48:59.443Z,100769.09
2023-03-15T03:51:26.242Z,100777.88
2023-03-15T03:53:53.136Z,100768.16
2023-03-15T03:56:19.999Z,100757.63
2023-03-15T03:58:46.838Z,100755.91
2023-03-15T04:01:13.671Z,100759.41
2023-03-15T04:03:41.156Z,100752.34
2023-03-15T04:06:08.151Z,100754.13
2023-03-15T04:08:35.000Z,100747.06
2023-03-15T04:11:04.268Z,100750.63
2023-03-15T04:13:31.658Z,100755.81
2023-03-15T04:15:58.873Z,100762.91
2023-03-15T04:18:25.824Z,100755.81
2023-03-15T04:20:54.996Z,100754.03
2023-03-15T04:23:25.135Z,100753.16
2023-03-15T04:25:53.103Z,100755.75
2023-03-15T04:28:20.075Z,100761.03
2023-03-15T04:30:49.641Z,100755.75
2023-03-15T04:33:16.940Z,100754.88
2023-03-15T04:35:43.874Z,100756.63
2023-03-15T04:38:11.038Z,100758.38
2023-03-15T04:40:37.887Z,100751.38
2023-03-15T04:43:05.915Z,100753.16
2023-03-15T04:45:33.133Z,100747.88
2023-03-15T04:48:00.411Z,100740.06
2023-03-15T04:50:27.724Z,100747.06
2023-03-15T04:52:54.739Z,100744.44
2023-03-15T04:55:21.963Z,100746.22
2023-03-15T04:57:48.806Z,100750.63
2023-03-15T05:00:15.920Z,100741.78
2023-03-15T05:02:42.820Z,100740.06
2023-03-15T05:05:10.614Z,100740.06
2023-03-15T05:07:38.254Z,100740.97
2023-03-15T05:10:06.822Z,100738.44
2023-03-15T05:12:37.165Z,100735.72
2023-03-15T05:15:04.252Z,100748.91
2023-03-15T05:17:31.192Z,100747.13
2023-03-15T05:19:58.380Z,100749.75
2023-03-15T05:22:26.031Z,100757.63
2023-03-15T05:24:53.962Z,100760.94
2023-03-15T05:27:21.204Z,100759.16
2023-03-15T05:29:48.298Z,100759.16
2023-03-15T05:32:15.225Z,100759.16
2023-03-15T05:34:43.029Z,100754.06
2023-03-15T05:37:10.576Z,100751.91
2023-03-15T05:39:37.449Z,100754.41
2023-03-15T05:42:04.489Z,100753.28
2023-03-15T05:44:31.295Z,100756.69
2023-03-15T05:46:58.150Z,100760.97
2023-03-15T05:49:25.651Z,100762.59
2023-03-15T05:51:52.754Z,100762.47
2023-03-15T05:54:19.633Z,100763.31
2023-03-15T05:56:46.530Z,100767.53
2023-03-15T05:59:13.515Z,100760.38
2023-03-15T06:01:40.371Z,100767.03
2023-03-15T06:04:07.440Z,100765.00
2023-03-15T06:06:35.116Z,100764.81
2023-03-15T06:09:01.984Z,100760.13
2023-03-15T06:11:28.801Z,100760.91
2023-03-15T06:13:55.578Z,100763.13
2023-03-15T06:16:22.396Z,100765.97
2023-03-15T06:18:49.301Z,100757.19
2023-03-15T06:21:16.123Z,100764.16
2023-03-15T06:23:43.099Z,100771.94
2023-03-15T06:26:10.062Z,100764.81
2023-03-15T06:28:36.997Z,100770.38
2023-03-15T06:31:14.086Z,100774.41
2023-03-15T06:33:41.100Z,100770.00
2023-03-15T06:36:08.373Z,100769.50
2023-03-15T06:38:35.288Z,100772.75
2023-03-15T06:41:02.222Z,100770.97
2023-03-15T06:43:29.193Z,100772.75
2023-03-15T06:45:57.145Z,100770.34
2023-03-15T06:48:24.129Z,100778.34
2023-03-15T06:50:51.076Z,100778.59
2023-03-15T06:53:18.166Z,100783.09
2023-03-15T06:55:45.532Z,100784.84
2023-03-15T06:58:13.408Z,100775.94
2023-03-15T07:00:40.547Z,100774.31
2023-03-15T07:03:07.412Z,100776.91
2023-03-15T07:05:34.300Z,100773.41
2023-03-15T07:08:01.260Z,100779.53
2023-03-15T07:10:28.147Z,100770.75
2023-03-15T07:12:55.169Z,100777.81
2023-03-15T07:15:22.088Z,100775.09
2023-03-15T07:17:49.043Z,100763.34
2023-03-15T07:20:16.086Z,100764.47
2023-03-15T07:22:45.897Z,100763.53
2023-03-15T07:25:13.069Z,100770.56
2023-03-15T07:27:40.053Z,100762.44
2023-03-15T07:30:08.476Z,100764.16
2023-03-15T07:32:35.477Z,100764.22
2023-03-15T07:35:02.623Z,100761.66
2023-03-15T07:37:29.863Z,100761.81
2023-03-15T07:39:58.229Z,100764.44
2023-03-15T07:42:25.402Z,100766.31
2023-03-15T07:44:52.337Z,100766.44
2023-03-15T07:47:19.255Z,100767.31
2023-03-15T07:49:46.608Z,100774.41
2023-03-15T07:52:13.570Z,100764.72
2023-03-15T07:54:41.023Z,100764.88
2023-03-15T07:57:08.234Z,100757.09
2023-03-15T07:59:35.218Z,100759.75
2023-03-15T08:02:03.173Z,100757.16
2023-03-15T08:04:30.921Z,100759.88
2023-03-15T08:06:58.048Z,100765.16
2023-03-15T08:09:25.281Z,100766.03
2023-03-15T08:11:52.416Z,100760.03
2023-03-15T08:14:19.444Z,100758.41
2023-03-15T08:16:46.426Z,100759.31
2023-03-15T08:19:13.272Z,100760.31
2023-03-15T08:21:40.332Z,100755.97
2023-03-15T08:24:07.545Z,100762.19
2023-03-15T08:26:36.375Z,100758.75
2023-03-15T08:29:03.545Z,100758.75
2023-03-15T08:31:31.334Z,100756.19
2023-03-15T08:33:58.658Z,100756.28
2023-03-15T08:36:25.710Z,100761.53
2023-03-15T08:38:52.576Z,100766.72
2023-03-15T08:41:19.432Z,100756.19
2023-03-15T08:43:46.303Z,100765.88
2023-03-15T08:46:13.341Z,100764.19
2023-03-15T08:48:40.242Z,100763.31
2023-03-15T08:51:08.217Z,100757.19
2023-03-15T08:53:35.837Z,100758.91
2023-03-15T08:56:02.768Z,100757.19
2023-03-15T08:58:29.994Z,100760.78
2023-03-15T09:00:57.693Z,100766.97
2023-03-15T09:03:24.897Z,100774.00
2023-03-15T09:05:56.988Z,100782.84
2023-03-15T09:08:25.723Z,100783.78
2023-03-15T09:10:56.665Z,100775.00
2023-03-15T09:13:25.090Z,100775.09
2023-03-15T09:15:53.681Z,100774.28
2023-03-15T09:18:21.370Z,100762.91
2023-03-15T09:20:48.824Z,100759.31
2023-03-15T09:23:15.825Z,100765.56
2023-03-15T09:25:42.873Z,100768.19
2023-03-15T09:28:11.858Z,100775.16
2023-03-15T09:30:40.974Z,100766.47
2023-03-15T09:33:08.718Z,100769.09
2023-03-15T09:35:36.035Z,100771.75
2023-03-15T09:38:04.175Z,100769.00
2023-03-15T09:40:34.533Z,100762.91
2023-03-15T09:43:20.980Z,100766.47
2023-03-15T09:46:09.856Z,100767.25
2023-03-15T09:48:59.155Z,100767.09
2023-03-15T09:51:35.631Z,100775.72
2023-03-15T09:54:11.690Z,100766.09
2023-03-15T09:56:57.866Z,100772.22
2023-03-15T09:59:37.930Z,100762.69
2023-03-15T10:02:14.977Z,100757.47
2023-03-15T10:04:45.094Z,100755.81
2023-03-15T10:07:16.916Z,100760.28
2023-03-15T10:09:46.209Z,100767.25
2023-03-15T10:12:21.463Z,100761.19
2023-03-15T10:15:22.449Z,100755.78
2023-03-15T10:18:27.151Z,100757.47
2023-03-15T10:21:07.169Z,100757.56
2023-03-15T10:23:43.679Z,100759.28
2023-03-15T10:26:15.875Z,100755.78
2023-03-15T10:28:45.206Z,100759.19
2023-03-15T10:31:21.616Z,100749.56
2023-03-15T10:33:54.364Z,100762.75
2023-03-15T10:36:23.875Z,100760.09
2023-03-15T10:38:51.306Z,100754.81
2023-03-15T10:41:53.906Z,100759.28
2023-03-15T10:44:26.079Z,100757.63
2023-03-15T10:47:21.545Z,100757.63
2023-03-15T10:49:50.538Z,100768.19
2023-03-15T10:52:39.128Z,100764.59
2023-03-15T10:55:21.604Z,100768.97
2023-03-15T10:57:57.281Z,100770.75
2023-03-15T11:00:33.215Z,100770.75
2023-03-15T11:03:03.682Z,100768.19
2023-03-15T11:05:40.545Z,100763.75
2023-03-15T11:08:13.549Z,100761.19
2023-03-15T11:10:40.878Z,100761.97
2023-03-15T11:13:27.857Z,100763.59
2023-03-15T11:16:04.360Z,100749.50
2023-03-15T11:18:43.257Z,100753.78
2023-03-15T11:21:17.141Z,100743.22
2023-03-15T11:23:48.402Z,100739.81
2023-03-15T11:26:31.483Z,100736.22
2023-03-15T11:29:24.410Z,100727.53
2023-03-15T11:31:52.699Z,100720.53
2023-03-15T11:34:36.345Z,100727.53
2023-03-15T11:37:13.081Z,100734.53
2023-03-15T11:39:47.212Z,100725.75
2023-03-15T11:42:24.185Z,100719.50
2023-03-15T11:44:56.306Z,100717.63
2023-03-15T11:47:47.803Z,100721.84
2023-03-15T11:50:15.917Z,100716.41
2023-03-15T11:52:43.764Z,100721.53
2023-03-15T11:55:18.689Z,100720.59
2023-03-15T11:57:47.497Z,100718.88
2023-03-15T12:00:46.377Z,100718.88
2023-03-15T12:03:37.085Z,100718.88
2023-03-15T12:06:12.692Z,100718.88
2023-03-15T12:08:52.843Z,100718.06
2023-03-15T12:11:22.657Z,100714.59
2023-03-15T12:13:58.724Z,100719.97
2023-03-15T12:16:38.758Z,100712.13
2023-03-15T12:19:18.525Z,100708.66
2023-03-15T12:21:54.778Z,100700.75
2023-03-15T12:24:26.395Z,100698.94
2023-03-15T12:27:06.622Z,100708.72
2023-03-15T12:29:36.415Z,100706.84
2023-03-15T12:32:03.325Z,100706.94
2023-03-15T12:34:34.776Z,100710.44
2023-03-15T12:37:07.610Z,100707.78
2023-03-15T12:39:42.185Z,100698.94
2023-03-15T12:42:39.178Z,100692.81
2023-03-15T12:45:18.382Z,100688.38
2023-03-15T12:47:47.043Z,100693.59
2023-03-15T12:50:51.231Z,100691.72
2023-03-15T12:53:40.154Z,100695.38
2023-03-15T12:56:19.100Z,100688.31
2023-03-15T12:58:54.478Z,100675.13
2023-03-15T13:01:25.994Z,100677.78
2023-03-15T13:03:58.611Z,100675.13
2023-03-15T13:06:36.141Z,100667.38
2023-03-15T13:09:48.539Z,100658.44
2023-03-15T13:12:26.383Z,100665.44
2023-03-15T13:15:08.243Z,100672.34
2023-03-15T13:17:58.554Z,100676.75
2023-03-15T13:20:34.444Z,100672.41
2023-03-15T13:23:15.462Z,100672.22
2023-03-15T13:25:55.090Z,100669.63
2023-03-15T13:28:27.854Z,100667.06
2023-03-15T13:30:56.258Z,100660.84
2023-03-15T13:33:30.538Z,100657.53
2023-03-15T13:35:58.872Z,100661.09
2023-03-15T13:38:44.493Z,100661.94
2023-03-15T13:41:23.467Z,100658.41
2023-03-15T13:43:53.489Z,100654.81
2023-03-15T13:46:25.818Z,100656.28
2023-03-15T13:48:54.802Z,100653.56
2023-03-15T13:51:29.111Z,100650.09
2023-03-15T13:54:02.537Z,100653.75
2023-03-15T13:56:56.011Z,100655.66
2023-03-15T13:59:36.424Z,100651.31
2023-03-15T14:02:06.375Z,100653.88
2023-03-15T14:04:40.806Z,100651.16
2023-03-15T14:07:29.057Z,100633.56
2023-03-15T14:10:26.853Z,100622.22
2023-03-15T14:12:58.421Z,100625.03
2023-03-15T14:15:37.389Z,100618.81
2023-03-15T14:18:25.989Z,100616.19
2023-03-15T14:21:15.866Z,100618.81
2023-03-15T14:23:46.246Z,100611.69
2023-03-15T14:26:22.294Z,100600.38
2023-03-15T14:28:57.543Z,100603.69
2023-03-15T14:31:28.100Z,100596.72
2023-03-15T14:34:01.156Z,100592.28
2023-03-15T14:36:35.758Z,100591.44
2023-03-15T14:39:02.947Z,100589.63
2023-03-15T14:41:33.293Z,100593.22
2023-03-15T14:44:03.293Z,100580.88
2023-03-15T14:46:33.384Z,100583.69
2023-03-15T14:49:01.169Z,100582.06
2023-03-15T14:51:29.895Z,100572.31
2023-03-15T14:53:59.341Z,100572.50
2023-03-15T14:56:26.809Z,100580.34
2023-03-15T14:58:56.881Z,100570.56
2023-03-15T15:01:28.072Z,100574.28
2023-03-15T15:03:58.533Z,100572.50
2023-03-15T15:06:27.675Z,100566.44
2023-03-15T15:08:59.007Z,100564.50
2023-03-15T15:11:26.709Z,100563.59
2023-03-15T15:13:55.174Z,100561.09
2023-03-15T15:16:22.530Z,100560.34
2023-03-15T15:18:49.555Z,100559.38
2023-03-15T15:21:22.342Z,100554.25
2023-03-15T15:23:58.365Z,100547.22
2023-03-15T15:26:29.149Z,100551.63
2023-03-15T15:28:56.820Z,100548.13
2023-03-15T15:31:26.206Z,100547.38
2023-03-15T15:33:55.203Z,100539.53
2023-03-15T15:36:33.038Z,100539.69
2023-03-15T15:39:06.390Z,100539.78
2023-03-15T15:41:34.093Z,100528.44
2023-03-15T15:44:01.924Z,100533.72
2023-03-15T15:46:29.288Z,100535.44
2023-03-15T15:48:56.521Z,100531.06
2023-03-15T15:51:39.530Z,100522.47
2023-03-15T15:54:07.040Z,100521.06
2023-03-15T15:56:37.468Z,100515.47
2023-03-15T15:59:05.324Z,100509.94
2023-03-15T16:01:33.106Z,100509.81
2023-03-15T16:04:02.423Z,100511.44
2023-03-15T16:06:29.653Z,100509.59
2023-03-15T16:08:57.081Z,100499.97
2023-03-15T16:11:24.791Z,100496.31
2023-03-15T16:13:54.329Z,100503.22
2023-03-15T16:16:22.419Z,100497.78
2023-03-15T16:18:49.951Z,100493.25
2023-03-15T16:21:25.214Z,100491.47
2023-03-15T16:23:58.774Z,100497.53
2023-03-15T16:26:26.054Z,100493.97
2023-03-15T16:28:53.393Z,100485.19
2023-03-15T16:31:24.369Z,100488.94
2023-03-15T16:33:51.558Z,100486.47
2023-03-15T16:36:21.645Z,100484.66
2023-03-15T16:38:48.831Z,100479.38
2023-03-15T16:41:16.993Z,100489.84
2023-03-15T16:43:46.245Z,100475.97
2023-03-15T16:46:18.495Z,100470.78
2023-03-15T16:48:45.623Z,100463.78
2023-03-15T16:51:14.999Z,100452.53
2023-03-15T16:53:45.572Z,100462.13
2023-03-15T16:56:14.099Z,100460.22
2023-03-15T16:58:42.813Z,100459.38
2023-03-15T17:01:11.323Z,100455.97
2023-03-15T17:03:38.533Z,100457.00
2023-03-15T17:06:06.254Z,100452.47
2023-03-15T17:08:33.846Z,100458.53
2023-03-15T17:11:01.066Z,100456.03
2023-03-15T17:13:30.185Z,100449.38
2023-03-15T17:15:57.849Z,100449.06
2023-03-15T17:18:24.901Z,100446.88
2023-03-15T17:20:52.019Z,100450.28
2023-03-15T17:23:21.235Z,100448.59
2023-03-15T17:25:49.238Z,100450.00
2023-03-15T17:28:16.159Z,100443.66
2023-03-15T17:30:43.171Z,100441.66
2023-03-15T17:33:10.326Z,100438.97
2023-03-15T17:35:44.578Z,100432.66
2023-03-15T17:38:24.929Z,100433.34
2023-03-15T17:40:52.152Z,100435.75
2023-03-15T17:43:19.189Z,100438.97
2023-03-15T17:45:46.273Z,100435.16
2023-03-15T17:48:13.378Z,100432.34
2023-03-15T17:50:43.526Z,100430.22
2023-03-15T17:53:18.982Z,100424.66
2023-03-15T17:55:48.140Z,100420.78
2023-03-15T17:58:23.657Z,100419.63
2023-03-15T18:00:51.727Z,100415.91
2023-03-15T18:03:18.682Z,100414.78
2023-03-15T18:05:45.821Z,100414.44
2023-03-15T18:08:15.361Z,100413.25
2023-03-15T18:10:42.455Z,100401.47
2023-03-15T18:13:13.714Z,100403.75
2023-03-15T18:15:41.021Z,100395.28
2023-03-15T18:18:07.921Z,100400.22
2023-03-15T18:20:35.171Z,100398.16
2023-03-15T18:23:03.034Z,100399.69
2023-03-15T18:25:33.777Z,100395.94
2023-03-15T18:28:01.426Z,100396.50
2023-03-15T18:30:31.078Z,100391.97
2023-03-15T18:32:58.514Z,100384.63
2023-03-15T18:35:34.013Z,100384.56
2023-03-15T18:38:01.001Z,100385.81
2023-03-15T18:40:30.703Z,100379.56
2023-03-15T18:42:58.897Z,100372.22
2023-03-15T18:45:34.326Z,100369.88
2023-03-15T18:48:01.845Z,100363.50
2023-03-15T18:50:29.653Z,100364.28
2023-03-15T18:53:00.669Z,100352.19
2023-03-15T18:55:28.430Z,100343.13
2023-03-15T18:57:56.309Z,100336.91
2023-03-15T19:00:27.339Z,100334.94
2023-03-15T19:02:58.298Z,100336.69
2023-03-15T19:05:26.172Z,100337.84
2023-03-15T19:07:57.989Z,100328.69
2023-03-15T19:10:26.020Z,100328.38
2023-03-15T19:12:54.204Z,100322.91
2023-03-15T19:15:22.934Z,100324.41
2023-03-15T19:17:57.117Z,100336.31
2023-03-15T19:20:26.307Z,100328.81
2023-03-15T19:22:53.883Z,100330.88
2023-03-15T19:25:22.298Z,100329.66
2023-03-15T19:27:49.658Z,100331.31
2023-03-15T19:30:21.261Z,100336.34
2023-03-15T19:32:50.447Z,100321.63
2023-03-15T19:35:19.812Z,100318.13
2023-03-15T19:37:49.229Z,100317.84
2023-03-15T19:40:17.821Z,100319.28
2023-03-15T19:42:46.239Z,100301.50
2023-03-15T19:45:14.554Z,100302.16
2023-03-15T19:47:42.240Z,100311.38
2023-03-15T19:50:11.501Z,100305.03
2023-03-15T19:52:46.254Z,100304.72
2023-03-15T19:55:15.626Z,100300.94
2023-03-15T19:57:43.523Z,100298.69
2023-03-15T20:00:13.049Z,100290.38
2023-03-15T20:02:44.196Z,100290.59
2023-03-15T20:05:15.412Z,100285.09
2023-03-15T20:07:44.444Z,100290.59
2023-03-15T20:10:14.417Z,100290.78
2023-03-15T20:12:43.141Z,100279.72
2023-03-15T20:15:14.705Z,100275.03
2023-03-15T20:17:43.573Z,100276.75
2023-03-15T20:20:17.064Z,100268.41
2023-03-15T20:22:46.191Z,100263.63
2023-03-15T20:25:17.740Z,100259.50
2023-03-15T20:27:47.757Z,100251.03
2023-03-15T20:30:18.384Z,100253.47
2023-03-15T20:32:45.723Z,100243.09
2023-03-15T20:35:13.080Z,100241.09
2023-03-15T20:37:41.975Z,100235.34
2023-03-15T20:40:16.334Z,100234.06
2023-03-15T20:42:43.999Z,100237.44
2023-03-15T20:45:13.330Z,100232.91
2023-03-15T20:47:41.705Z,100229.00
2023-03-15T20:50:10.829Z,100221.34
2023-03-15T20:52:38.413Z,100210.41
2023-03-15T20:55:08.214Z,100212.63
2023-03-15T20:57:36.770Z,100200.72
2023-03-15T21:00:12.929Z,100189.91
2023-03-15T21:02:40.956Z,100196.72
2023-03-15T21:05:09.438Z,100195.97
2023-03-15T21:07:38.478Z,100176.34
2023-03-15T21:10:07.098Z,100180.34
2023-03-15T21:12:39.083Z,100180.22
2023-03-15T21:15:07.706Z,100161.66
2023-03-15T21:17:36.298Z,100157.19
2023-03-15T21:20:06.334Z,100162.03
2023-03-15T21:22:36.576Z,100148.56
2023-03-15T21:25:06.827Z,100143.88
2023-03-15T21:27:34.890Z,100136.44
2023-03-15T21:30:13.424Z,100135.59
2023-03-15T21:32:42.277Z,100121.81
2023-03-15T21:35:12.782Z,100125.31
2023-03-15T21:37:41.448Z,100113.84
2023-03-15T21:40:11.208Z,100113.94
2023-03-15T21:42:39.696Z,100108.03
2023-03-15T21:45:09.269Z,100102.94
2023-03-15T21:47:38.506Z,100101.25
2023-03-15T21:50:08.868Z,100103.16
2023-03-15T21:52:36.468Z,100100.84
2023-03-15T21:55:08.383Z,100091.72
2023-03-15T21:57:36.210Z,100087.03
2023-03-15T22:00:07.272Z,100081.75
2023-03-15T22:02:34.954Z,100092.13
2023-03-15T22:05:02.642Z,100093.00
2023-03-15T22:07:31.845Z,100085.66
2023-03-15T22:10:03.128Z,100081.66
2023-03-15T22:12:30.417Z,100077.31
2023-03-15T22:15:05.458Z,100061.84
2023-03-15T22:17:33.507Z,100052.00
2023-03-15T22:20:01.567Z,100052.44
2023-03-15T22:22:29.368Z,100054.72
2023-03-15T22:24:56.945Z,100055.28
2023-03-15T22:27:24.701Z,100048.81
2023-03-15T22:29:55.664Z,100038.88
2023-03-15T22:32:23.088Z,100036.53
2023-03-15T22:34:50.710Z,100040.34
2023-03-15T22:37:22.595Z,100034.63
2023-03-15T22:39:50.367Z,100035.78
2023-03-15T22:42:17.800Z,100033.44
2023-03-15T22:44:45.258Z,100016.19
2023-03-15T22:47:13.304Z,100019.97
2023-03-15T22:49:40.640Z,100017.66
2023-03-15T22:52:08.214Z,100015.31
2023-03-15T22:54:35.650Z,100017.22
2023-03-15T22:57:02.859Z,100009.59
2023-03-15T22:59:30.305Z,99993.91
2023-03-15T23:01:58.714Z,99992.44
2023-03-15T23:04:25.853Z,99994.44
2023-03-15T23:06:53.635Z,99998.34
2023-03-15T23:09:22.133Z,99987.03
2023-03-15T23:11:49.509Z,99975.78
2023-03-15T23:14:16.632Z,99975.16
2023-03-15T23:16:43.870Z,99957.81
2023-03-15T23:19:11.315Z,99957.91
2023-03-15T23:21:39.819Z,99953.78
2023-03-15T23:24:08.124Z,99946.03
2023-03-15T23:26:39.020Z,99934.81
2023-03-15T23:29:11.209Z,99935.09
2023-03-15T23:31:40.177Z,99919.56
2023-03-15T23:34:08.741Z,99920.59
2023-03-15T23:36:36.320Z,99912.88
2023-03-15T23:39:04.848Z,99908.75
2023-03-15T23:41:31.794Z,99901.03
2023-03-15T23:44:00.019Z,99886.97
2023-03-15T23:46:26.993Z,99879.25
2023-03-15T23:48:54.076Z,99882.00
2023-03-15T23:51:22.470Z,99870.69
2023-03-15T23:53:49.392Z,99859.28
2023-03-15T23:56:16.232Z,99861.25
2023-03-15T23:58:43.175Z,99861.47
